createdAt,value
2023-05-20T00:00:49.291Z,2.15
2023-05-20T00:03:17.035Z,2.25
2023-05-20T00:05:44.082Z,2.05
2023-05-20T00:08:11.262Z,2.33
2023-05-20T00:10:38.388Z,2.33
2023-05-20T00:13:06.600Z,2.45
2023-05-20T00:15:34.386Z,2.47
2023-05-20T00:18:02.112Z,1.90
2023-05-20T00:20:29.054Z,2.90
2023-05-20T00:22:55.973Z,2.78
2023-05-20T00:25:22.690Z,2.10
2023-05-20T00:27:49.314Z,2.42
2023-05-20T00:30:16.046Z,2.15
2023-05-20T00:32:42.664Z,2.22
2023-05-20T00:35:10.919Z,2.10
2023-05-20T00:37:37.595Z,2.60
2023-05-20T00:40:04.953Z,2.35
2023-05-20T00:42:31.549Z,2.13
2023-05-20T00:44:58.224Z,2.88
2023-05-20T00:47:31.850Z,2.15
2023-05-20T00:49:59.412Z,2.00
2023-05-20T00:52:27.571Z,2.55
2023-05-20T00:54:54.360Z,2.05
2023-05-20T00:57:21.386Z,2.40
2023-05-20T00:59:48.142Z,2.20
2023-05-20T01:02:14.836Z,2.60
2023-05-20T01:04:46.574Z,2.40
2023-05-20T01:07:15.754Z,2.50
2023-05-20T01:09:43.228Z,2.50
2023-05-20T01:12:22.907Z,2.28
2023-05-20T01:14:52.056Z,2.50
2023-05-20T01:17:20.996Z,2.70
2023-05-20T01:19:49.240Z,2.40
2023-05-20T01:22:16.342Z,2.35
2023-05-20T01:24:45.212Z,2.78
2023-05-20T01:27:13.637Z,2.40
2023-05-20T01:29:44.215Z,2.40
2023-05-20T01:32:15.481Z,2.40
2023-05-20T01:34:43.126Z,2.60
2023-05-20T01:37:11.024Z,2.50
2023-05-20T01:39:41.736Z,2.38
2023-05-20T01:42:12.320Z,2.45
2023-05-20T01:44:39.462Z,2.50
2023-05-20T01:47:06.311Z,2.15
2023-05-20T01:49:33.126Z,2.15
2023-05-20T01:51:59.794Z,2.67
2023-05-20T01:54:26.549Z,2.78
2023-05-20T01:56:53.476Z,2.22
2023-05-20T01:59:20.157Z,2.63
2023-05-20T02:01:46.919Z,2.47
2023-05-20T02:04:13.599Z,2.60
2023-05-20T02:06:40.681Z,2.70
2023-05-20T02:09:07.651Z,2.70
2023-05-20T02:11:34.289Z,2.35
2023-05-20T02:14:01.034Z,2.40
2023-05-20T02:16:27.848Z,2.38
2023-05-20T02:18:54.516Z,2.53
2023-05-20T02:21:21.324Z,2.58
2023-05-20T02:23:48.027Z,2.40
2023-05-20T02:26:14.845Z,2.70
2023-05-20T02:28:46.553Z,2.20
2023-05-20T02:31:13.866Z,2.35
2023-05-20T02:33:40.572Z,2.60
2023-05-20T02:36:07.717Z,2.40
2023-05-20T02:38:34.379Z,2.47
2023-05-20T02:41:01.063Z,2.47
2023-05-20T02:43:27.705Z,2.50
2023-05-20T02:45:54.448Z,3.22
2023-05-20T02:48:21.229Z,2.65
2023-05-20T02:50:48.190Z,2.65
2023-05-20T02:53:14.802Z,2.90
2023-05-20T02:55:41.481Z,2.60
2023-05-20T02:58:08.346Z,2.53
2023-05-20T03:00:40.927Z,2.38
2023-05-20T03:03:08.668Z,2.50
2023-05-20T03:05:38.020Z,2.55
2023-05-20T03:08:10.032Z,2.65
2023-05-20T03:10:39.671Z,2.22
2023-05-20T03:13:11.511Z,2.70
2023-05-20T03:15:39.356Z,2.50
2023-05-20T03:18:08.437Z,2.72
2023-05-20T03:20:38.643Z,3.00
2023-05-20T03:23:05.610Z,2.80
2023-05-20T03:25:32.523Z,2.60
2023-05-20T03:27:59.926Z,2.30
2023-05-20T03:30:27.581Z,2.60
2023-05-20T03:32:56.303Z,3.33
2023-05-20T03:35:23.225Z,2.50
2023-05-20T03:37:51.683Z,2.53
2023-05-20T03:40:18.344Z,2.70
2023-05-20T03:42:45.078Z,2.63
2023-05-20T03:45:11.825Z,2.75
2023-05-20T03:47:38.634Z,3.15
2023-05-20T03:50:06.671Z,2.58
2023-05-20T03:52:33.356Z,3.00
2023-05-20T03:55:00.379Z,2.42
2023-05-20T03:57:27.014Z,2.90
2023-05-20T03:59:53.740Z,2.60
2023-05-20T04:02:21.198Z,2.78
2023-05-20T04:04:48.108Z,2.40
2023-05-20T04:07:14.722Z,2.67
2023-05-20T04:09:41.415Z,2.53
2023-05-20T04:12:08.092Z,3.00
2023-05-20T04:14:38.962Z,2.70
2023-05-20T04:17:06.337Z,2.97
2023-05-20T04:19:34.844Z,2.90
2023-05-20T04:22:01.552Z,2.50
2023-05-20T04:24:28.286Z,3.20
2023-05-20T04:26:55.043Z,2.63
2023-05-20T04:29:21.915Z,2.60
2023-05-20T04:31:48.872Z,2.65
2023-05-20T04:34:19.571Z,2.78
2023-05-20T04:36:46.345Z,2.60
2023-05-20T04:39:13.883Z,2.75
2023-05-20T04:41:40.612Z,2.90
2023-05-20T04:44:07.315Z,2.40
2023-05-20T04:46:34.089Z,3.15
2023-05-20T04:49:00.846Z,2.95
2023-05-20T04:51:27.529Z,3.08
2023-05-20T04:53:54.147Z,2.83
2023-05-20T04:56:20.946Z,2.83
2023-05-20T04:58:47.668Z,2.38
2023-05-20T05:01:14.281Z,2.70
2023-05-20T05:03:40.964Z,3.08
2023-05-20T05:06:07.600Z,3.05
2023-05-20T05:08:34.366Z,2.67
2023-05-20T05:11:00.992Z,2.60
2023-05-20T05:13:27.632Z,2.72
2023-05-20T05:16:01.636Z,2.67
2023-05-20T05:18:28.376Z,2.97
2023-05-20T05:21:05.668Z,2.92
2023-05-20T05:23:33.205Z,2.97
2023-05-20T05:26:00.063Z,3.10
2023-05-20T05:28:26.744Z,2.80
2023-05-20T05:30:56.929Z,2.70
2023-05-20T05:33:23.638Z,3.05
2023-05-20T05:35:50.725Z,2.80
2023-05-20T05:38:17.352Z,2.92
2023-05-20T05:40:43.908Z,2.67
2023-05-20T05:43:10.843Z,2.90
2023-05-20T05:45:37.498Z,3.05
2023-05-20T05:48:04.338Z,2.92
2023-05-20T05:50:31.041Z,3.05
2023-05-20T05:52:57.661Z,2.75
2023-05-20T05:55:24.405Z,3.13
2023-05-20T05:57:51.482Z,3.10
2023-05-20T06:00:18.291Z,3.30
2023-05-20T06:02:45.698Z,3.10
2023-05-20T06:05:12.851Z,3.55
2023-05-20T06:07:39.515Z,3.17
2023-05-20T06:10:06.567Z,3.35
2023-05-20T06:12:33.226Z,3.17
2023-05-20T06:14:59.877Z,3.40
2023-05-20T06:17:26.601Z,3.20
2023-05-20T06:19:53.578Z,2.92
2023-05-20T06:22:20.223Z,3.42
2023-05-20T06:24:46.882Z,3.15
2023-05-20T06:27:13.532Z,3.10
2023-05-20T06:29:41.804Z,3.30
2023-05-20T06:32:10.291Z,3.57
2023-05-20T06:34:37.457Z,3.67
2023-05-20T06:37:04.207Z,3.75
2023-05-20T06:39:31.012Z,3.63
2023-05-20T06:41:57.673Z,3.25
2023-05-20T06:44:24.310Z,3.05
2023-05-20T06:46:50.972Z,3.20
2023-05-20T06:49:17.705Z,3.45
2023-05-20T06:51:44.371Z,4.68
2023-05-20T06:54:11.062Z,3.53
2023-05-20T06:56:37.705Z,3.58
2023-05-20T06:59:04.389Z,3.35
2023-05-20T07:01:31.100Z,3.22
2023-05-20T07:03:57.814Z,3.47
2023-05-20T07:06:24.476Z,3.30
2023-05-20T07:08:51.161Z,3.60
2023-05-20T07:11:17.803Z,3.17
2023-05-20T07:13:44.394Z,3.72
2023-05-20T07:16:11.067Z,3.67
2023-05-20T07:18:37.843Z,3.67
2023-05-20T07:21:04.447Z,3.63
2023-05-20T07:23:31.353Z,3.47
2023-05-20T07:25:58.008Z,3.20
2023-05-20T07:28:24.616Z,3.47
2023-05-20T07:30:51.444Z,3.63
2023-05-20T07:33:18.117Z,3.72
2023-05-20T07:35:45.718Z,3.40
2023-05-20T07:38:12.772Z,3.53
2023-05-20T07:40:41.500Z,3.83
2023-05-20T07:43:08.941Z,3.53
2023-05-20T07:45:39.426Z,4.20
2023-05-20T07:48:06.514Z,3.80
2023-05-20T07:50:34.280Z,4.00
2023-05-20T07:53:00.974Z,3.42
2023-05-20T07:55:27.701Z,3.97
2023-05-20T07:57:54.343Z,4.10
2023-05-20T08:00:21.499Z,4.45
2023-05-20T08:02:48.360Z,3.60
2023-05-20T08:05:15.116Z,4.03
2023-05-20T08:07:41.810Z,3.83
2023-05-20T08:10:09.149Z,4.05
2023-05-20T08:12:35.960Z,3.70
2023-05-20T08:15:02.661Z,4.28
2023-05-20T08:17:29.493Z,3.70
2023-05-20T08:19:56.227Z,4.18
2023-05-20T08:22:22.983Z,4.70
2023-05-20T08:24:49.596Z,4.25
2023-05-20T08:27:16.220Z,4.60
2023-05-20T08:29:45.079Z,4.60
2023-05-20T08:32:11.860Z,4.22
2023-05-20T08:34:38.938Z,4.40
2023-05-20T08:37:05.615Z,4.45
2023-05-20T08:39:32.301Z,4.07
2023-05-20T08:41:59.293Z,3.97
2023-05-20T08:44:27.873Z,4.60
2023-05-20T08:46:55.150Z,5.22
2023-05-20T08:49:21.984Z,4.20
2023-05-20T08:51:49.269Z,4.07
2023-05-20T08:54:17.057Z,4.43
2023-05-20T08:56:44.272Z,5.00
2023-05-20T08:59:11.194Z,4.30
2023-05-20T09:01:44.761Z,4.28
2023-05-20T09:04:11.652Z,4.68
2023-05-20T09:06:45.891Z,4.63
2023-05-20T09:09:16.992Z,4.68
2023-05-20T09:11:43.821Z,4.53
2023-05-20T09:14:10.549Z,4.68
2023-05-20T09:16:37.211Z,4.72
2023-05-20T09:19:06.988Z,4.63
2023-05-20T09:21:35.590Z,4.53
2023-05-20T09:24:02.578Z,4.40
2023-05-20T09:26:32.930Z,4.43
2023-05-20T09:29:00.207Z,4.90
2023-05-20T09:31:38.922Z,4.72
2023-05-20T09:34:05.792Z,4.70
2023-05-20T09:36:35.010Z,4.63
2023-05-20T09:39:03.878Z,4.63
2023-05-20T09:41:38.622Z,4.57
2023-05-20T09:44:06.957Z,4.97
2023-05-20T09:46:35.363Z,4.60
2023-05-20T09:49:03.106Z,4.82
2023-05-20T09:51:29.998Z,4.60
2023-05-20T09:53:57.685Z,4.68
2023-05-20T09:56:25.664Z,4.38
2023-05-20T09:58:58.313Z,4.85
2023-05-20T10:01:25.516Z,4.13
2023-05-20T10:03:53.503Z,4.35
2023-05-20T10:06:53.144Z,4.20
2023-05-20T10:09:56.485Z,4.32
2023-05-20T10:12:35.525Z,4.30
2023-05-20T10:15:51.716Z,4.20
2023-05-20T10:18:42.635Z,4.85
2023-05-20T10:23:44.037Z,4.68
2023-05-20T10:26:10.790Z,4.00
2023-05-20T10:28:40.323Z,4.15
2023-05-20T10:31:22.923Z,4.40
2023-05-20T10:33:52.761Z,4.20
2023-05-20T10:36:37.719Z,3.90
2023-05-20T10:39:04.812Z,4.32
2023-05-20T10:41:31.769Z,3.75
2023-05-20T10:44:03.517Z,4.55
2023-05-20T10:46:38.548Z,4.47
2023-05-20T10:49:26.160Z,4.40
2023-05-20T10:51:54.305Z,5.07
2023-05-20T10:54:22.400Z,4.72
2023-05-20T10:56:55.728Z,4.68
2023-05-20T10:59:22.758Z,4.20
2023-05-20T11:01:49.681Z,5.03
2023-05-20T11:04:17.560Z,4.63
2023-05-20T11:06:54.293Z,4.60
2023-05-20T11:09:21.894Z,4.70
2023-05-20T11:11:49.301Z,4.85
2023-05-20T11:14:17.361Z,4.18
2023-05-20T11:16:44.736Z,4.47
2023-05-20T11:19:19.126Z,4.82
2023-05-20T11:21:46.533Z,4.90
2023-05-20T11:24:13.837Z,4.50
2023-05-20T11:26:41.354Z,4.32
2023-05-20T11:29:08.368Z,4.30
2023-05-20T11:31:38.237Z,4.40
2023-05-20T11:34:05.204Z,4.65
2023-05-20T11:36:32.483Z,4.05
2023-05-20T11:39:00.215Z,4.45
2023-05-20T11:41:27.996Z,4.72
2023-05-20T11:44:01.281Z,4.43
2023-05-20T11:46:28.816Z,4.57
2023-05-20T11:48:56.584Z,4.78
2023-05-20T11:51:30.251Z,4.50
2023-05-20T11:54:01.801Z,4.72
2023-05-20T11:56:33.525Z,4.15
2023-05-20T11:59:01.555Z,4.13
2023-05-20T12:01:31.742Z,4.20
2023-05-20T12:03:58.574Z,4.65
2023-05-20T12:06:25.585Z,3.97
2023-05-20T12:08:52.258Z,3.92
2023-05-20T12:11:18.889Z,4.22
2023-05-20T12:13:45.581Z,4.85
2023-05-20T12:16:12.260Z,4.50
2023-05-20T12:18:39.044Z,4.47
2023-05-20T12:21:05.856Z,3.97
2023-05-20T12:23:34.277Z,4.53
2023-05-20T12:26:01.283Z,4.68
2023-05-20T12:28:27.959Z,5.05
2023-05-20T12:30:54.566Z,4.90
2023-05-20T12:33:21.324Z,4.68
2023-05-20T12:35:47.933Z,4.90
2023-05-20T12:38:14.661Z,5.15
2023-05-20T12:40:41.374Z,5.07
2023-05-20T12:43:08.077Z,4.50
2023-05-20T12:45:34.772Z,4.82
2023-05-20T12:48:01.849Z,4.97
2023-05-20T12:50:28.822Z,5.25
2023-05-20T12:52:55.730Z,5.70
2023-05-20T12:55:22.634Z,4.60
2023-05-20T12:57:49.946Z,5.30
2023-05-20T13:00:17.009Z,5.68
2023-05-20T13:02:44.348Z,5.10
2023-05-20T13:05:11.573Z,5.07
2023-05-20T13:07:38.436Z,5.95
2023-05-20T13:10:06.424Z,6.40
2023-05-20T13:12:34.473Z,5.55
2023-05-20T13:15:01.220Z,5.28
2023-05-20T13:17:28.581Z,5.13
2023-05-20T13:19:55.511Z,6.00
2023-05-20T13:22:22.622Z,5.57
2023-05-20T13:24:49.309Z,6.05
2023-05-20T13:27:15.978Z,4.70
2023-05-20T13:29:43.841Z,5.03
2023-05-20T13:32:11.555Z,4.60
2023-05-20T13:34:38.890Z,5.28
2023-05-20T13:37:06.071Z,6.03
2023-05-20T13:39:32.856Z,5.03
2023-05-20T13:41:59.744Z,5.43
2023-05-20T13:44:26.433Z,5.38
2023-05-20T13:46:53.216Z,5.05
2023-05-20T13:49:21.126Z,5.10
2023-05-20T13:51:47.796Z,5.80
2023-05-20T13:54:14.491Z,5.90
2023-05-20T13:56:41.337Z,5.85
2023-05-20T13:59:08.266Z,7.53
2023-05-20T14:01:35.201Z,5.90
2023-05-20T14:04:02.184Z,5.47
2023-05-20T14:06:29.565Z,6.22
2023-05-20T14:08:57.085Z,6.15
2023-05-20T14:11:23.753Z,6.28
2023-05-20T14:13:50.437Z,6.18
2023-05-20T14:16:17.270Z,6.38
2023-05-20T14:18:44.046Z,5.65
2023-05-20T14:21:12.132Z,6.32
2023-05-20T14:23:41.162Z,6.13
2023-05-20T14:26:07.812Z,6.22
2023-05-20T14:28:34.648Z,6.07
2023-05-20T14:31:01.449Z,6.00
2023-05-20T14:33:28.106Z,5.35
2023-05-20T14:35:54.744Z,5.15
2023-05-20T14:38:21.906Z,5.13
2023-05-20T14:40:48.525Z,5.45
2023-05-20T14:43:15.271Z,4.60
2023-05-20T14:45:41.978Z,5.20
2023-05-20T14:48:08.720Z,5.35
2023-05-20T14:50:35.649Z,5.03
2023-05-20T14:53:02.574Z,5.15
2023-05-20T14:55:29.290Z,5.40
2023-05-20T14:57:55.898Z,5.88
2023-05-20T15:00:22.647Z,5.22
2023-05-20T15:02:49.456Z,5.15
2023-05-20T15:05:16.355Z,5.07
2023-05-20T15:07:43.844Z,5.28
2023-05-20T15:10:11.744Z,5.97
2023-05-20T15:12:38.526Z,5.68
2023-05-20T15:15:05.897Z,5.70
2023-05-20T15:17:32.582Z,5.07
2023-05-20T15:19:59.356Z,5.35
2023-05-20T15:22:26.181Z,5.78
2023-05-20T15:24:52.980Z,5.80
2023-05-20T15:27:19.592Z,5.75
2023-05-20T15:29:46.345Z,5.88
2023-05-20T15:32:12.948Z,5.45
2023-05-20T15:34:39.754Z,6.28
2023-05-20T15:37:06.519Z,5.97
2023-05-20T15:39:37.792Z,5.95
2023-05-20T15:42:05.221Z,6.47
2023-05-20T15:44:32.336Z,5.45
2023-05-20T15:46:59.047Z,6.63
2023-05-20T15:49:25.720Z,5.95
2023-05-20T15:52:02.896Z,6.43
2023-05-20T15:54:30.029Z,5.85
2023-05-20T15:56:56.858Z,8.02
2023-05-20T15:59:23.593Z,5.88
2023-05-20T16:01:50.239Z,6.18
2023-05-20T16:04:17.117Z,6.43
2023-05-20T16:06:43.819Z,5.55
2023-05-20T16:09:10.439Z,6.05
2023-05-20T16:11:37.140Z,5.95
2023-05-20T16:14:03.782Z,5.78
2023-05-20T16:16:30.625Z,6.40
2023-05-20T16:18:59.386Z,5.57
2023-05-20T16:21:26.206Z,5.97
2023-05-20T16:23:52.907Z,6.78
2023-05-20T16:26:19.740Z,6.18
2023-05-20T16:28:47.230Z,6.47
2023-05-20T16:31:14.070Z,6.70
2023-05-20T16:33:41.201Z,7.10
2023-05-20T16:36:07.844Z,7.15
2023-05-20T16:38:34.756Z,7.07
2023-05-20T16:41:01.982Z,7.03
2023-05-20T16:43:28.580Z,6.65
2023-05-20T16:45:55.172Z,6.18
2023-05-20T16:48:21.890Z,6.20
2023-05-20T16:50:48.533Z,6.78
2023-05-20T16:53:16.431Z,6.18
2023-05-20T16:55:43.389Z,6.70
2023-05-20T16:58:10.171Z,12.63
2023-05-20T17:00:36.946Z,6.53
2023-05-20T17:03:04.212Z,6.80
2023-05-20T17:05:30.881Z,6.85
2023-05-20T17:08:00.139Z,6.32
2023-05-20T17:10:28.613Z,6.25
2023-05-20T17:12:55.774Z,6.72
2023-05-20T17:15:23.641Z,6.68
2023-05-20T17:17:50.823Z,6.32
2023-05-20T17:20:17.770Z,6.97
2023-05-20T17:22:44.440Z,6.45
2023-05-20T17:25:11.395Z,6.63
2023-05-20T17:27:38.062Z,6.78
2023-05-20T17:30:05.237Z,6.38
2023-05-20T17:32:32.031Z,6.82
2023-05-20T17:34:58.661Z,6.80
2023-05-20T17:37:26.094Z,6.97
2023-05-20T17:39:52.991Z,6.70
2023-05-20T17:42:21.107Z,6.45
2023-05-20T17:44:47.854Z,6.68
2023-05-20T17:47:14.790Z,7.43
2023-05-20T17:49:41.454Z,6.80
2023-05-20T17:52:08.152Z,7.10
2023-05-20T17:54:34.851Z,7.53
2023-05-20T17:57:01.669Z,6.53
2023-05-20T17:59:28.849Z,6.93
2023-05-20T18:01:55.916Z,7.22
2023-05-20T18:04:22.830Z,6.63
2023-05-20T18:06:49.464Z,6.97
2023-05-20T18:09:17.100Z,7.05
2023-05-20T18:11:43.721Z,7.05
2023-05-20T18:14:10.413Z,7.50
2023-05-20T18:16:37.153Z,6.78
2023-05-20T18:19:04.057Z,7.22
2023-05-20T18:21:30.889Z,7.10
2023-05-20T18:23:57.650Z,7.28
2023-05-20T18:26:24.306Z,7.45
2023-05-20T18:28:51.018Z,7.85
2023-05-20T18:31:17.707Z,7.00
2023-05-20T18:33:44.341Z,6.88
2023-05-20T18:36:11.176Z,8.00
2023-05-20T18:38:39.159Z,7.55
2023-05-20T18:41:07.898Z,7.30
2023-05-20T18:43:34.545Z,6.95
2023-05-20T18:46:01.528Z,6.97
2023-05-20T18:48:28.407Z,7.53
2023-05-20T18:50:56.290Z,6.85
2023-05-20T18:53:23.693Z,7.07
2023-05-20T18:55:50.630Z,7.60
2023-05-20T18:58:17.278Z,7.43
2023-05-20T19:00:44.025Z,7.00
2023-05-20T19:03:11.644Z,7.13
2023-05-20T19:05:39.057Z,7.20
2023-05-20T19:08:06.407Z,7.38
2023-05-20T19:10:33.205Z,7.22
2023-05-20T19:12:59.995Z,7.90
2023-05-20T19:15:26.796Z,7.28
2023-05-20T19:17:53.690Z,7.32
2023-05-20T19:20:20.534Z,6.72
2023-05-20T19:22:47.444Z,7.68
2023-05-20T19:25:14.302Z,7.30
2023-05-20T19:27:41.384Z,7.03
2023-05-20T19:30:10.682Z,7.38
2023-05-20T19:32:38.674Z,7.47
2023-05-20T19:35:06.194Z,7.53
2023-05-20T19:37:33.286Z,7.57
2023-05-20T19:40:00.120Z,7.82
2023-05-20T19:42:26.817Z,7.32
2023-05-20T19:44:54.101Z,7.72
2023-05-20T19:47:21.387Z,7.22
2023-05-20T19:49:48.237Z,7.90
2023-05-20T19:52:15.087Z,7.40
2023-05-20T19:54:42.757Z,7.72
2023-05-20T19:57:10.088Z,7.30
2023-05-20T19:59:38.160Z,7.72
2023-05-20T20:02:06.102Z,7.63
2023-05-20T20:04:32.917Z,8.15
2023-05-20T20:07:00.119Z,7.97
2023-05-20T20:09:27.254Z,7.53
2023-05-20T20:11:54.243Z,7.13
2023-05-20T20:14:21.581Z,7.57
2023-05-20T20:16:49.348Z,7.97
2023-05-20T20:19:23.020Z,7.63
2023-05-20T20:21:52.296Z,8.60
2023-05-20T20:24:24.208Z,7.72
2023-05-20T20:26:54.276Z,7.47
2023-05-20T20:29:23.775Z,7.80
2023-05-20T20:31:50.821Z,7.57
2023-05-20T20:34:17.608Z,8.13
2023-05-20T20:36:45.017Z,7.85
2023-05-20T20:39:30.151Z,8.07
2023-05-20T20:41:58.995Z,7.68
2023-05-20T20:44:26.698Z,8.38
2023-05-20T20:46:54.887Z,8.32
2023-05-20T20:49:22.705Z,8.73
2023-05-20T20:51:50.028Z,7.80
2023-05-20T20:54:17.048Z,7.82
2023-05-20T20:56:46.909Z,8.30
2023-05-20T20:59:13.863Z,7.97
2023-05-20T21:01:44.768Z,8.60
2023-05-20T21:06:46.105Z,8.30
2023-05-20T21:09:16.369Z,8.07
2023-05-20T21:11:43.309Z,8.23
2023-05-20T21:14:10.683Z,8.48
2023-05-20T21:16:37.662Z,8.85
2023-05-20T21:19:04.857Z,8.50
2023-05-20T21:21:31.862Z,8.80
2023-05-20T21:23:58.608Z,7.50
2023-05-20T21:26:25.807Z,8.00
2023-05-20T21:28:52.750Z,9.10
2023-05-20T21:31:19.494Z,7.63
2023-05-20T21:33:46.197Z,8.10
2023-05-20T21:36:12.884Z,8.70
2023-05-20T21:38:39.931Z,8.70
2023-05-20T21:41:06.753Z,8.50
2023-05-20T21:43:33.488Z,9.63
2023-05-20T21:46:00.389Z,8.45
2023-05-20T21:48:27.148Z,9.70
2023-05-20T21:50:53.866Z,9.57
2023-05-20T21:53:20.514Z,8.50
2023-05-20T21:55:47.170Z,9.27
2023-05-20T21:58:13.864Z,8.32
2023-05-20T22:00:41.080Z,9.70
2023-05-20T22:03:07.798Z,10.23
2023-05-20T22:05:34.887Z,9.45
2023-05-20T22:08:01.959Z,9.90
2023-05-20T22:10:28.748Z,9.90
2023-05-20T22:12:55.696Z,10.23
2023-05-20T22:15:22.954Z,10.52
2023-05-20T22:17:49.698Z,9.20
2023-05-20T22:20:16.460Z,9.02
2023-05-20T22:22:43.066Z,10.07
2023-05-20T22:25:09.989Z,10.82
2023-05-20T22:27:37.161Z,9.90
2023-05-20T22:30:06.151Z,10.93
2023-05-20T22:32:33.132Z,10.57
2023-05-20T22:34:59.935Z,10.40
2023-05-20T22:37:28.865Z,10.00
2023-05-20T22:39:56.349Z,10.68
2023-05-20T22:42:23.253Z,9.88
2023-05-20T22:44:50.030Z,10.57
2023-05-20T22:47:16.626Z,11.07
2023-05-20T22:49:43.324Z,10.38
2023-05-20T22:52:10.089Z,10.20
2023-05-20T22:54:36.719Z,10.70
2023-05-20T22:57:03.443Z,11.07
2023-05-20T22:59:31.397Z,11.35
2023-05-20T23:01:58.089Z,11.60
2023-05-20T23:04:24.960Z,9.85
2023-05-20T23:06:53.852Z,10.98
2023-05-20T23:09:20.973Z,11.38
2023-05-20T23:11:47.685Z,10.98
2023-05-20T23:14:14.387Z,11.45
2023-05-20T23:16:42.159Z,10.57
2023-05-20T23:19:09.189Z,11.25
2023-05-20T23:21:37.319Z,10.70
2023-05-20T23:24:04.551Z,12.00
2023-05-20T23:26:31.589Z,11.65
2023-05-20T23:28:58.254Z,11.35
2023-05-20T23:31:26.940Z,11.35
2023-05-20T23:33:54.324Z,11.05
2023-05-20T23:36:21.175Z,12.40
2023-05-20T23:38:47.812Z,11.05
2023-05-20T23:41:14.456Z,11.05
2023-05-20T23:43:41.293Z,13.02
2023-05-20T23:46:08.221Z,12.45
2023-05-20T23:48:35.994Z,11.82
2023-05-20T23:51:03.155Z,12.23
2023-05-20T23:53:30.072Z,11.25
2023-05-20T23:55:56.754Z,12.70
2023-05-20T23:58:23.649Z,11.43
